Time;durP1;ratioP1;P1;durP2;ratioP2;P2;SDS_P1;SDS_P2;PMS_P1;PMS_P2;Temp;Humidity;BMP_temperature;BMP_pressure;BME280_temperature;BME280_humidity;BME280_pressure;Samples;Min_cycle;Max_cycle;Signal;HPM_P1;HPM_P2
2020/12/08 00:00:35;;;;;;;100.88;37.45;;;1.70;99.90;;;;;;4964709;28;20050;-76
2020/12/08 00:03:01;;;;;;;97.63;36.10;;;1.60;99.90;;;;;;4957767;28;20050;-77
2020/12/08 00:05:28;;;;;;;83.07;35.35;;;1.50;99.90;;;;;;4989359;28;20057;-76
2020/12/08 00:07:54;;;;;;;85.28;34.47;;;1.50;99.90;;;;;;4957305;28;20637;-76
2020/12/08 00:10:21;;;;;;;89.97;34.95;;;1.60;99.90;;;;;;4973548;28;20580;-78
2020/12/08 00:12:48;;;;;;;85.65;35.70;;;1.60;99.90;;;;;;4973983;28;20308;-76
2020/12/08 00:15:16;;;;;;;81.63;35.80;;;1.60;99.90;;;;;;4973402;28;20454;-76
2020/12/08 00:17:46;;;;;;;85.07;34.15;;;1.60;99.90;;;;;;4975185;28;20164;-77
2020/12/08 00:20:16;;;;;;;82.50;33.30;;;1.60;99.90;;;;;;4972183;28;20384;-77
2020/12/08 00:22:42;;;;;;;83.13;33.97;;;1.60;99.90;;;;;;4956667;28;20124;-76
2020/12/08 00:25:09;;;;;;;76.60;33.80;;;1.50;99.90;;;;;;4973232;28;20152;-77
2020/12/08 00:27:36;;;;;;;93.78;35.55;;;1.50;99.90;;;;;;4972977;28;20042;-77
2020/12/08 00:30:15;;;;;;;83.60;34.25;;;1.50;99.90;;;;;;4957335;28;20105;-76
2020/12/08 00:32:43;;;;;;;81.53;33.60;;;1.40;99.90;;;;;;4972834;28;20054;-77
2020/12/08 00:35:11;;;;;;;84.47;35.72;;;1.50;99.90;;;;;;4938442;28;20248;-77
2020/12/08 00:37:45;;;;;;;78.15;30.75;;;1.60;99.90;;;;;;4938811;28;20280;-78
2020/12/08 00:40:13;;;;;;;91.53;32.65;;;1.40;99.90;;;;;;4955166;28;20050;-77
2020/12/08 00:42:40;;;;;;;89.78;33.20;;;1.10;99.90;;;;;;4954301;28;20051;-77
2020/12/08 00:45:10;;;;;;;88.28;31.63;;;1.00;99.90;;;;;;4936931;28;20523;-76
2020/12/08 00:47:37;;;;;;;84.22;31.58;;;0.80;99.90;;;;;;4952770;28;20054;-76
2020/12/08 00:50:05;;;;;;;95.15;34.20;;;0.70;99.90;;;;;;4946279;28;20290;-76
2020/12/08 00:52:32;;;;;;;84.13;32.42;;;0.80;99.90;;;;;;4971406;28;20062;-76
2020/12/08 00:55:09;;;;;;;87.65;33.05;;;0.60;99.90;;;;;;4972446;28;20496;-76
2020/12/08 00:57:38;;;;;;;86.55;31.38;;;0.60;99.90;;;;;;4973411;28;20053;-78
2020/12/08 01:00:07;;;;;;;84.47;35.72;;;0.60;99.90;;;;;;4956799;28;20078;-77
2020/12/08 01:02:38;;;;;;;100.05;36.83;;;0.60;99.90;;;;;;4956740;28;20077;-77
2020/12/08 01:05:11;;;;;;;95.53;35.88;;;0.60;99.90;;;;;;4988613;28;20054;-76
2020/12/08 01:07:41;;;;;;;96.57;34.38;;;0.40;99.90;;;;;;4955765;28;20283;-77
2020/12/08 01:10:14;;;;;;;110.07;35.40;;;0.40;99.90;;;;;;4986482;28;20058;-77
2020/12/08 01:12:41;;;;;;;94.88;35.05;;;0.40;99.90;;;;;;4972107;28;20081;-76
2020/12/08 01:15:09;;;;;;;100.32;34.42;;;0.40;99.90;;;;;;4971774;28;20109;-77
2020/12/08 01:17:37;;;;;;;110.18;36.08;;;0.40;99.90;;;;;;4972028;28;20043;-76
2020/12/08 01:20:04;;;;;;;101.43;35.58;;;0.50;99.90;;;;;;4971343;28;20497;-75
2020/12/08 01:22:32;;;;;;;106.13;36.72;;;0.40;99.90;;;;;;4951318;28;20689;-76
2020/12/08 01:24:59;;;;;;;96.97;32.70;;;0.50;99.90;;;;;;4918571;29;20047;-77
2020/12/08 01:27:31;;;;;;;74.20;31.42;;;0.40;99.90;;;;;;4940562;28;20061;-76
2020/12/08 01:29:58;;;;;;;83.45;33.28;;;0.50;99.90;;;;;;4955021;28;20142;-76
2020/12/08 01:32:25;;;;;;;76.28;30.73;;;0.60;99.90;;;;;;4954212;28;20054;-77
2020/12/08 01:34:51;;;;;;;81.15;32.08;;;0.70;99.90;;;;;;4956158;28;20081;-76
2020/12/08 01:37:18;;;;;;;75.40;30.50;;;0.80;99.90;;;;;;4971743;28;20038;-77
2020/12/08 01:39:44;;;;;;;79.00;31.58;;;0.70;99.90;;;;;;4969828;28;20051;-77
2020/12/08 01:42:12;;;;;;;92.97;34.50;;;1.00;99.90;;;;;;4921977;28;20038;-77
2020/12/08 01:44:46;;;;;;;79.47;29.83;;;0.90;99.90;;;;;;4953162;28;20058;-76
2020/12/08 01:47:17;;;;;;;74.45;28.95;;;0.80;99.90;;;;;;4935677;28;20065;-77
2020/12/08 01:49:45;;;;;;;66.63;29.92;;;0.70;99.90;;;;;;4931907;28;20046;-77
2020/12/08 01:52:17;;;;;;;78.00;29.85;;;0.80;99.90;;;;;;4955504;28;20112;-77
2020/12/08 01:54:50;;;;;;;75.38;31.15;;;0.80;99.90;;;;;;4962488;28;20045;-77
2020/12/08 01:57:19;;;;;;;74.30;29.55;;;0.90;99.90;;;;;;4950607;28;20054;-76
2020/12/08 01:59:47;;;;;;;71.22;29.92;;;1.10;99.90;;;;;;4955393;28;20431;-76
2020/12/08 02:02:21;;;;;;;72.80;30.50;;;1.10;99.90;;;;;;4954353;28;20057;-76
2020/12/08 02:04:48;;;;;;;63.67;28.42;;;1.10;99.90;;;;;;4954519;28;20085;-76
2020/12/08 02:07:14;;;;;;;74.43;27.70;;;1.20;99.90;;;;;;4969914;28;20058;-76
2020/12/08 02:09:41;;;;;;;67.18;28.98;;;1.30;99.90;;;;;;4938563;28;20435;-77
2020/12/08 02:12:09;;;;;;;63.03;28.00;;;1.60;99.90;;;;;;4955439;28;20069;-78
2020/12/08 02:14:38;;;;;;;60.88;27.70;;;1.80;99.90;;;;;;4988135;28;20050;-78
2020/12/08 02:17:05;;;;;;;61.67;28.27;;;1.90;99.90;;;;;;4973102;28;20077;-77
2020/12/08 02:19:32;;;;;;;66.75;27.55;;;2.10;99.90;;;;;;4953351;28;20046;-77
2020/12/08 02:22:02;;;;;;;59.75;28.45;;;2.00;99.90;;;;;;4961816;28;20109;-78
2020/12/08 02:24:29;;;;;;;65.90;27.58;;;2.00;99.90;;;;;;4974042;28;20050;-78
2020/12/08 02:26:55;;;;;;;67.93;28.95;;;2.10;99.90;;;;;;4971725;28;20094;-77
2020/12/08 02:29:22;;;;;;;71.40;30.85;;;2.00;99.90;;;;;;4954514;28;20030;-78
2020/12/08 02:31:49;;;;;;;57.53;27.77;;;2.00;99.90;;;;;;4954994;28;20061;-75
2020/12/08 02:34:19;;;;;;;64.22;29.70;;;1.90;99.90;;;;;;4970966;28;20050;-75
2020/12/08 02:36:54;;;;;;;68.18;29.40;;;1.80;99.90;;;;;;4956022;28;20057;-78
2020/12/08 02:39:22;;;;;;;64.85;27.75;;;1.80;99.90;;;;;;4955208;28;20506;-76
2020/12/08 02:41:49;;;;;;;59.50;27.35;;;1.90;99.90;;;;;;4971000;28;20047;-76
2020/12/08 02:44:15;;;;;;;60.70;27.75;;;2.10;99.90;;;;;;4991246;28;20145;-75
2020/12/08 02:46:46;;;;;;;64.80;27.63;;;2.10;99.90;;;;;;4973438;28;20050;-75
2020/12/08 02:49:14;;;;;;;57.60;25.90;;;2.20;99.90;;;;;;4966481;28;20061;-76
2020/12/08 02:51:40;;;;;;;47.65;24.52;;;2.20;99.90;;;;;;4971962;28;20511;-76
2020/12/08 02:54:07;;;;;;;48.15;24.65;;;2.30;99.90;;;;;;4982852;28;20530;-75
2020/12/08 02:56:33;;;;;;;49.53;24.55;;;2.30;99.90;;;;;;4963776;28;20054;-76
2020/12/08 02:59:08;;;;;;;44.42;24.15;;;2.30;99.90;;;;;;4976292;28;20105;-76
2020/12/08 03:01:35;;;;;;;38.50;22.42;;;2.40;99.90;;;;;;4959205;28;20511;-76
2020/12/08 03:04:03;;;;;;;42.22;22.30;;;2.40;99.90;;;;;;4959378;28;20345;-77
2020/12/08 03:06:30;;;;;;;42.47;21.60;;;2.30;99.90;;;;;;4959178;28;20423;-76
2020/12/08 03:08:59;;;;;;;44.35;24.80;;;2.30;99.90;;;;;;4975177;28;20061;-76
2020/12/08 03:11:30;;;;;;;36.67;21.17;;;2.30;99.90;;;;;;4974265;28;20073;-75
2020/12/08 03:14:02;;;;;;;39.13;21.27;;;2.30;99.90;;;;;;4974833;28;20053;-77
2020/12/08 03:16:29;;;;;;;43.28;22.77;;;2.30;99.90;;;;;;4974941;28;20050;-76
2020/12/08 03:18:56;;;;;;;36.92;20.88;;;2.30;99.90;;;;;;4974392;28;20054;-76
2020/12/08 03:21:27;;;;;;;38.63;21.65;;;2.30;99.90;;;;;;4948701;28;20056;-77
2020/12/08 03:23:53;;;;;;;40.55;24.23;;;2.40;99.90;;;;;;4997297;28;20057;-78
2020/12/08 03:26:23;;;;;;;34.03;19.42;;;2.40;99.90;;;;;;4989348;28;20114;-76
2020/12/08 03:28:54;;;;;;;35.83;22.27;;;2.30;99.90;;;;;;4974291;28;20060;-77
2020/12/08 03:31:21;;;;;;;40.70;21.45;;;2.30;99.90;;;;;;4977104;28;20584;-77
2020/12/08 03:33:48;;;;;;;41.45;23.92;;;2.30;99.90;;;;;;4974733;28;20479;-76
2020/12/08 03:36:18;;;;;;;35.65;21.92;;;2.30;99.90;;;;;;4972806;28;20137;-75
2020/12/08 03:38:46;;;;;;;41.35;23.00;;;2.40;99.90;;;;;;4974301;28;20054;-76
2020/12/08 03:41:23;;;;;;;36.47;22.05;;;2.40;99.90;;;;;;4990261;28;20054;-75
2020/12/08 03:43:53;;;;;;;42.17;24.42;;;2.40;99.90;;;;;;4989684;28;20489;-75
2020/12/08 03:46:25;;;;;;;40.55;22.80;;;2.40;99.90;;;;;;4956857;28;20043;-75
2020/12/08 03:48:53;;;;;;;36.70;22.40;;;2.40;99.90;;;;;;4988734;28;20057;-75
2020/12/08 03:51:21;;;;;;;38.75;22.73;;;2.40;99.90;;;;;;4957722;28;20088;-76
2020/12/08 03:53:48;;;;;;;36.50;20.92;;;2.40;99.90;;;;;;4970277;28;20046;-76
2020/12/08 03:56:19;;;;;;;40.50;23.45;;;2.40;99.90;;;;;;4948921;28;20062;-77
2020/12/08 03:58:50;;;;;;;37.17;22.08;;;2.30;99.90;;;;;;4958520;28;20057;-76
2020/12/08 04:01:20;;;;;;;37.83;23.20;;;2.40;99.90;;;;;;4956815;28;20116;-76
2020/12/08 04:03:49;;;;;;;38.13;23.13;;;2.40;99.90;;;;;;4973023;28;20093;-77
2020/12/08 04:06:16;;;;;;;33.20;21.23;;;2.40;99.90;;;;;;4956781;28;20051;-77
2020/12/08 04:08:43;;;;;;;37.13;22.33;;;2.40;99.90;;;;;;4964951;28;20145;-77
2020/12/08 04:11:11;;;;;;;47.75;24.63;;;2.50;99.90;;;;;;4986989;28;20526;-77
2020/12/08 04:13:42;;;;;;;42.42;25.27;;;2.50;99.90;;;;;;4973516;28;20260;-77
2020/12/08 04:16:13;;;;;;;45.70;26.30;;;2.50;99.90;;;;;;4956550;28;20062;-76
2020/12/08 04:18:41;;;;;;;41.55;25.33;;;2.50;99.90;;;;;;4956786;28;20109;-77
2020/12/08 04:21:08;;;;;;;33.17;20.23;;;2.60;99.90;;;;;;4955549;28;20135;-76
2020/12/08 04:23:35;;;;;;;50.47;27.63;;;2.50;99.90;;;;;;4971789;28;20054;-75
2020/12/08 04:26:09;;;;;;;55.70;30.95;;;2.50;99.90;;;;;;4986781;28;20046;-76
2020/12/08 04:28:37;;;;;;;41.35;24.05;;;2.50;99.90;;;;;;4972267;28;20050;-76
2020/12/08 04:31:10;;;;;;;37.58;24.65;;;2.50;99.90;;;;;;4973604;28;20042;-79
2020/12/08 04:33:37;;;;;;;40.13;23.52;;;2.50;99.90;;;;;;4990042;28;20054;-77
2020/12/08 04:36:20;;;;;;;37.17;23.15;;;2.60;99.90;;;;;;4993301;28;20047;-77
2020/12/08 04:38:47;;;;;;;38.40;24.38;;;2.60;99.90;;;;;;4995179;28;20180;-76
2020/12/08 04:41:22;;;;;;;43.95;26.38;;;2.60;99.90;;;;;;4977857;28;20041;-75
2020/12/08 04:43:50;;;;;;;;;;;2.60;99.90;;;;;;4992010;28;20046;-76
2020/12/08 04:46:18;;;;;;;40.05;24.95;;;2.60;99.90;;;;;;5011447;28;19910;-78
2020/12/08 04:48:46;;;;;;;43.83;27.23;;;2.60;99.90;;;;;;4976238;28;20410;-76
2020/12/08 04:51:13;;;;;;;36.83;23.17;;;2.70;99.90;;;;;;4984163;28;20068;-77
2020/12/08 04:53:39;;;;;;;39.88;24.10;;;2.70;99.90;;;;;;4964418;28;20050;-76
2020/12/08 04:56:06;;;;;;;37.22;25.10;;;2.70;99.90;;;;;;4962715;28;20050;-76
2020/12/08 04:58:32;;;;;;;35.35;23.38;;;2.70;99.90;;;;;;4972910;28;20494;-76
2020/12/08 05:00:59;;;;;;;41.60;25.75;;;2.60;99.90;;;;;;4954911;28;20057;-77
2020/12/08 05:03:26;;;;;;;37.88;24.92;;;2.60;99.90;;;;;;4988672;28;20117;-76
2020/12/08 05:05:53;;;;;;;40.33;25.05;;;2.70;99.90;;;;;;4987754;28;20050;-77
2020/12/08 05:08:21;;;;;;;37.08;23.58;;;2.70;99.90;;;;;;4972059;28;20514;-75
2020/12/08 05:10:48;;;;;;;38.85;24.55;;;2.60;99.90;;;;;;4971460;28;20126;-76
2020/12/08 05:13:20;;;;;;;38.30;23.75;;;2.60;99.90;;;;;;4989010;28;20046;-76
2020/12/08 05:16:00;;;;;;;37.60;23.10;;;2.60;99.90;;;;;;4972327;28;20050;-76
2020/12/08 05:18:26;;;;;;;42.40;27.10;;;2.60;99.90;;;;;;4987702;28;20493;-77
2020/12/08 05:20:53;;;;;;;38.72;25.15;;;2.60;99.90;;;;;;4987151;28;20621;-77
2020/12/08 05:23:21;;;;;;;45.40;29.17;;;2.60;99.90;;;;;;4988680;28;20476;-77
2020/12/08 05:25:48;;;;;;;48.13;31.00;;;2.60;99.90;;;;;;4939926;28;20054;-76
2020/12/08 05:28:19;;;;;;;42.30;26.92;;;2.60;99.90;;;;;;4955464;28;20092;-77
2020/12/08 05:30:46;;;;;;;43.67;27.98;;;2.70;99.90;;;;;;4957762;28;20058;-78
2020/12/08 05:33:17;;;;;;;40.65;25.80;;;2.70;99.90;;;;;;4956686;28;20145;-77
2020/12/08 05:35:46;;;;;;;37.78;24.02;;;2.60;99.90;;;;;;4988957;28;20105;-78
2020/12/08 05:38:15;;;;;;;39.80;25.85;;;2.70;99.90;;;;;;4987563;28;20062;-76
2020/12/08 05:40:44;;;;;;;41.85;26.13;;;2.60;99.90;;;;;;4989186;28;20046;-77
2020/12/08 05:43:11;;;;;;;45.22;28.95;;;2.60;99.90;;;;;;4974067;28;20053;-77
2020/12/08 05:45:37;;;;;;;43.90;26.13;;;2.60;99.90;;;;;;4972216;28;20472;-77
2020/12/08 05:48:04;;;;;;;42.85;26.95;;;2.70;99.90;;;;;;4948201;28;20314;-76
2020/12/08 05:50:31;;;;;;;40.92;25.20;;;2.60;99.90;;;;;;4964845;28;20065;-77
2020/12/08 05:53:00;;;;;;;45.85;27.38;;;2.60;99.90;;;;;;4972378;28;20070;-77
2020/12/08 05:55:31;;;;;;;45.30;26.65;;;2.60;99.90;;;;;;4955316;28;20048;-76
2020/12/08 05:58:06;;;;;;;41.25;24.60;;;2.60;99.90;;;;;;4987753;28;20509;-76
2020/12/08 06:00:34;;;;;;;43.03;28.08;;;2.60;99.90;;;;;;4986908;28;20108;-76
2020/12/08 06:03:14;;;;;;;41.72;25.60;;;2.60;99.90;;;;;;4987763;28;20398;-77
2020/12/08 06:05:45;;;;;;;56.67;32.22;;;2.60;99.90;;;;;;4987624;28;20058;-77
2020/12/08 06:08:18;;;;;;;45.25;26.95;;;2.60;99.90;;;;;;4988434;28;20066;-77
2020/12/08 06:10:44;;;;;;;49.97;31.40;;;2.60;99.90;;;;;;4971040;28;20563;-78
2020/12/08 06:13:21;;;;;;;41.72;27.00;;;2.60;99.90;;;;;;4971433;28;20058;-79
2020/12/08 06:15:48;;;;;;;38.20;25.23;;;2.60;99.90;;;;;;4970932;28;20054;-77
2020/12/08 06:18:14;;;;;;;37.13;24.30;;;2.60;99.90;;;;;;4973827;28;20042;-77
2020/12/08 06:20:41;;;;;;;45.20;24.00;;;2.60;99.90;;;;;;4958493;28;20044;-76
2020/12/08 06:23:07;;;;;;;41.55;26.48;;;2.60;99.90;;;;;;4963307;28;20492;-76
2020/12/08 06:25:34;;;;;;;40.50;26.13;;;2.60;99.90;;;;;;4974027;28;20050;-76
2020/12/08 06:28:02;;;;;;;40.85;26.35;;;2.60;99.90;;;;;;4958561;28;20050;-76
2020/12/08 06:30:29;;;;;;;41.53;25.75;;;2.60;99.90;;;;;;4965631;28;20058;-77
2020/12/08 06:33:00;;;;;;;34.72;23.92;;;2.60;99.90;;;;;;4940809;28;20459;-76
2020/12/08 06:35:32;;;;;;;35.00;24.60;;;2.60;99.90;;;;;;4971705;28;20043;-76
2020/12/08 06:38:14;;;;;;;39.90;26.38;;;2.70;99.90;;;;;;4945710;28;20107;-76
2020/12/08 06:40:50;;;;;;;38.80;26.08;;;2.70;99.90;;;;;;4975139;28;20132;-77
2020/12/08 06:43:17;;;;;;;39.13;25.10;;;2.70;99.90;;;;;;4991280;28;20046;-76
2020/12/08 06:45:44;;;;;;;33.90;24.58;;;2.70;99.90;;;;;;4989995;28;20074;-77
2020/12/08 06:48:18;;;;;;;41.90;27.02;;;2.80;99.90;;;;;;4957854;28;20050;-77
2020/12/08 06:50:46;;;;;;;40.50;26.35;;;2.80;99.90;;;;;;4990835;28;20060;-77
2020/12/08 06:53:13;;;;;;;38.40;25.00;;;2.90;99.90;;;;;;4975447;28;20100;-77
2020/12/08 06:55:48;;;;;;;40.10;26.27;;;2.90;99.90;;;;;;4975073;28;20114;-77
2020/12/08 06:58:18;;;;;;;39.55;27.10;;;2.90;99.90;;;;;;4974030;28;20256;-76
2020/12/08 07:00:45;;;;;;;39.55;27.27;;;2.80;99.90;;;;;;4974934;28;20210;-78
2020/12/08 07:03:14;;;;;;;42.35;27.92;;;2.90;99.90;;;;;;4990460;28;20062;-76
2020/12/08 07:05:40;;;;;;;46.13;30.15;;;2.90;99.90;;;;;;4974072;28;20070;-76
2020/12/08 07:08:08;;;;;;;39.35;27.77;;;2.90;99.90;;;;;;4990036;28;20484;-77
2020/12/08 07:10:39;;;;;;;43.00;29.02;;;2.90;99.90;;;;;;4957140;28;20050;-77
2020/12/08 07:13:14;;;;;;;37.47;28.73;;;2.90;99.90;;;;;;4974826;28;20057;-78
2020/12/08 07:15:41;;;;;;;44.20;29.13;;;2.80;99.90;;;;;;4974038;28;20073;-77
2020/12/08 07:18:10;;;;;;;35.25;27.20;;;2.80;99.90;;;;;;4989613;28;20050;-77
2020/12/08 07:20:42;;;;;;;40.25;27.88;;;2.90;99.90;;;;;;4973507;28;20057;-76
2020/12/08 07:23:10;;;;;;;38.33;27.08;;;2.80;99.90;;;;;;4974546;28;20054;-78
2020/12/08 07:25:37;;;;;;;37.58;27.40;;;2.90;99.90;;;;;;4944466;28;20050;-77
2020/12/08 07:28:07;;;;;;;40.10;28.48;;;2.90;99.90;;;;;;4974301;28;20054;-78
2020/12/08 07:30:33;;;;;;;35.97;26.75;;;2.80;99.90;;;;;;4942634;28;20530;-77
2020/12/08 07:33:11;;;;;;;37.47;26.67;;;2.80;99.90;;;;;;4974196;28;20050;-77
2020/12/08 07:35:43;;;;;;;37.70;27.30;;;2.90;99.90;;;;;;4993231;28;20120;-77
2020/12/08 07:38:10;;;;;;;35.95;26.38;;;2.80;99.90;;;;;;4974223;28;20214;-78
2020/12/08 07:40:38;;;;;;;36.22;26.10;;;2.70;99.90;;;;;;4978313;23;20110;-75
2020/12/08 07:43:06;;;;;;;36.67;27.30;;;2.70;99.90;;;;;;4967322;28;20046;-76
2020/12/08 07:45:39;;;;;;;40.47;28.02;;;2.80;99.90;;;;;;4963232;28;20059;-73
2020/12/08 07:48:06;;;;;;;38.42;27.30;;;2.70;99.90;;;;;;4930597;29;20158;-74
2020/12/08 07:50:33;;;;;;;45.05;29.55;;;2.70;99.90;;;;;;4948664;28;20055;-74
2020/12/08 07:53:04;;;;;;;39.65;28.27;;;2.70;99.90;;;;;;4948179;29;20491;-76
2020/12/08 07:55:46;;;;;;;56.17;32.30;;;2.80;99.90;;;;;;4947830;28;20535;-74
2020/12/08 07:58:13;;;;;;;41.83;28.10;;;2.70;99.90;;;;;;4949399;28;20095;-73
2020/12/08 08:00:40;;;;;;;45.38;29.85;;;2.80;99.90;;;;;;4947533;28;20059;-73
2020/12/08 08:03:07;;;;;;;40.00;27.73;;;2.80;99.90;;;;;;4947601;28;20432;-74
2020/12/08 08:05:33;;;;;;;40.13;28.70;;;2.90;99.90;;;;;;4948513;28;20081;-73
2020/12/08 08:08:01;;;;;;;42.10;28.85;;;2.80;99.90;;;;;;4947484;29;20043;-74
2020/12/08 08:10:27;;;;;;;43.15;28.85;;;2.80;99.90;;;;;;4943385;29;20126;-73
2020/12/08 08:12:54;;;;;;;41.30;29.08;;;2.80;99.90;;;;;;4930540;29;20099;-77
2020/12/08 08:15:20;;;;;;;39.97;28.00;;;2.90;99.90;;;;;;4943995;28;20105;-77
2020/12/08 08:17:46;;;;;;;43.08;30.77;;;2.90;99.90;;;;;;4936414;29;20427;-77
2020/12/08 08:20:13;;;;;;;40.72;28.58;;;2.90;99.90;;;;;;4947143;28;20059;-76
2020/12/08 08:22:39;;;;;;;39.80;27.90;;;2.90;99.90;;;;;;4932029;29;20051;-76
2020/12/08 08:25:05;;;;;;;39.83;28.33;;;2.90;99.90;;;;;;4946949;28;20500;-77
2020/12/08 08:27:32;;;;;;;37.75;27.27;;;2.90;99.90;;;;;;4931734;29;20055;-76
2020/12/08 08:29:59;;;;;;;38.25;27.23;;;2.80;99.90;;;;;;4931847;29;20047;-77
2020/12/08 08:32:26;;;;;;;44.53;28.67;;;2.80;99.90;;;;;;4965602;28;20050;-77
2020/12/08 08:34:52;;;;;;;47.17;30.08;;;2.90;99.90;;;;;;4966467;28;20043;-77
2020/12/08 08:37:19;;;;;;;43.63;30.38;;;2.90;99.90;;;;;;4955763;28;20044;-76
2020/12/08 08:39:45;;;;;;;45.70;32.40;;;2.90;99.90;;;;;;4920636;28;20207;-77
2020/12/08 08:42:11;;;;;;;41.83;29.90;;;2.90;99.90;;;;;;4947891;28;20054;-77
2020/12/08 08:44:38;;;;;;;41.00;29.10;;;3.00;99.90;;;;;;4968383;28;20494;-74
2020/12/08 08:47:04;;;;;;;39.22;29.55;;;3.00;99.90;;;;;;4965920;28;20050;-73
2020/12/08 08:49:31;;;;;;;42.45;30.30;;;3.00;99.90;;;;;;4966458;28;20047;-73
2020/12/08 08:51:57;;;;;;;40.00;28.83;;;2.90;99.90;;;;;;4965503;28;20051;-75
2020/12/08 08:54:23;;;;;;;40.83;29.48;;;2.90;99.90;;;;;;4965139;28;20053;-74
2020/12/08 08:56:54;;;;;;;43.55;28.95;;;2.90;99.90;;;;;;4934659;28;20702;-74
2020/12/08 08:59:21;;;;;;;37.30;27.88;;;2.90;99.90;;;;;;4930127;29;20105;-74
2020/12/08 09:01:48;;;;;;;46.17;31.48;;;2.90;99.90;;;;;;4943497;29;20166;-74
2020/12/08 09:04:14;;;;;;;53.60;34.33;;;2.80;99.90;;;;;;4945527;29;20150;-75
2020/12/08 09:06:40;;;;;;;40.65;28.80;;;2.80;99.90;;;;;;4927016;29;20052;-74
2020/12/08 09:09:07;;;;;;;49.03;33.40;;;2.90;99.90;;;;;;4928173;29;20091;-74
2020/12/08 09:11:33;;;;;;;62.75;38.13;;;2.90;99.90;;;;;;4943013;29;20056;-75
2020/12/08 09:13:59;;;;;;;54.25;34.35;;;3.00;99.90;;;;;;4928732;29;20505;-75
2020/12/08 09:16:26;;;;;;;71.72;39.45;;;3.00;99.90;;;;;;4928043;28;20958;-74
2020/12/08 09:18:52;;;;;;;44.92;30.35;;;3.00;99.90;;;;;;4944009;29;20478;-74
2020/12/08 09:21:19;;;;;;;42.17;31.10;;;3.00;99.90;;;;;;4946068;28;20059;-74
2020/12/08 09:23:46;;;;;;;42.33;30.67;;;3.00;99.90;;;;;;4947493;28;20437;-73
2020/12/08 09:26:12;;;;;;;43.55;31.55;;;3.10;99.90;;;;;;4945774;29;20067;-74
2020/12/08 09:28:39;;;;;;;32.78;27.73;;;3.10;99.90;;;;;;4933034;29;20055;-74
2020/12/08 09:31:05;;;;;;;40.47;29.63;;;3.10;99.90;;;;;;4946082;28;20063;-74
2020/12/08 09:33:31;;;;;;;40.80;29.27;;;3.10;99.90;;;;;;4929064;29;20059;-74
2020/12/08 09:35:58;;;;;;;44.08;31.08;;;3.20;99.90;;;;;;4945695;29;20511;-74
2020/12/08 09:38:24;;;;;;;38.60;28.45;;;3.20;99.90;;;;;;4945944;29;20054;-75
2020/12/08 09:40:51;;;;;;;38.00;26.98;;;3.10;99.90;;;;;;4947928;28;20051;-76
2020/12/08 09:43:21;;;;;;;39.78;29.70;;;3.10;99.90;;;;;;4939848;29;20078;-76
2020/12/08 09:45:48;;;;;;;40.20;28.58;;;3.10;99.90;;;;;;4943756;29;20052;-77
2020/12/08 09:48:14;;;;;;;42.70;28.10;;;3.10;99.90;;;;;;4937493;29;20043;-76
2020/12/08 09:50:41;;;;;;;37.83;27.35;;;3.00;99.90;;;;;;4950986;28;20119;-77
2020/12/08 09:53:07;;;;;;;38.33;27.50;;;3.10;99.90;;;;;;4968111;28;20089;-77
2020/12/08 09:55:34;;;;;;;40.55;29.83;;;3.20;99.90;;;;;;4966084;28;20047;-77
2020/12/08 09:58:00;;;;;;;50.67;36.90;;;3.20;99.90;;;;;;4965137;28;20103;-76
2020/12/08 10:00:27;;;;;;;59.53;38.17;;;3.20;99.90;;;;;;4964139;28;20059;-78
2020/12/08 10:02:53;;;;;;;76.97;46.47;;;3.20;99.90;;;;;;4948518;29;20119;-77
2020/12/08 10:05:19;;;;;;;80.80;49.67;;;3.20;99.90;;;;;;4967199;28;20059;-78
2020/12/08 10:07:46;;;;;;;78.43;43.97;;;3.20;99.90;;;;;;4996908;28;20090;-77
2020/12/08 10:10:12;;;;;;;100.57;56.53;;;3.30;99.90;;;;;;4950244;28;20051;-76
2020/12/08 10:12:38;;;;;;;92.25;56.08;;;3.40;99.90;;;;;;4949406;28;20169;-77
2020/12/08 10:15:05;;;;;;;81.13;54.15;;;3.40;99.90;;;;;;4949729;28;20059;-76
2020/12/08 10:17:31;;;;;;;56.33;37.95;;;3.50;99.90;;;;;;4948134;28;20548;-76
2020/12/08 10:19:58;;;;;;;41.63;31.38;;;3.70;99.90;;;;;;4950587;28;20263;-76
2020/12/08 10:22:24;;;;;;;39.42;29.33;;;3.80;99.90;;;;;;4949705;28;20150;-76
2020/12/08 10:24:50;;;;;;;42.47;29.00;;;3.80;99.90;;;;;;4949058;29;20146;-77
2020/12/08 10:27:17;;;;;;;38.47;29.23;;;3.80;99.90;;;;;;4949981;28;20228;-78
2020/12/08 10:29:43;;;;;;;40.63;28.75;;;3.80;99.90;;;;;;4951277;29;20146;-77
2020/12/08 10:32:09;;;;;;;39.08;29.95;;;4.00;99.90;;;;;;4949991;28;20130;-76
2020/12/08 10:34:35;;;;;;;34.78;28.25;;;4.10;99.90;;;;;;4957429;29;20102;-77
2020/12/08 10:37:02;;;;;;;36.33;28.27;;;4.10;99.90;;;;;;4966326;28;20107;-77
2020/12/08 10:39:28;;;;;;;34.90;27.52;;;4.30;99.90;;;;;;4985965;28;20126;-77
2020/12/08 10:41:56;;;;;;;38.15;28.25;;;4.30;99.90;;;;;;4969206;28;20083;-76
2020/12/08 10:44:22;;;;;;;31.65;25.60;;;4.40;99.90;;;;;;4950201;29;20062;-77
2020/12/08 10:46:50;;;;;;;35.10;27.65;;;4.50;99.90;;;;;;4962666;29;20054;-77
2020/12/08 10:49:18;;;;;;;34.55;27.80;;;4.40;99.90;;;;;;4984613;28;20050;-76
2020/12/08 10:51:45;;;;;;;29.38;25.90;;;4.50;99.90;;;;;;4958601;29;20055;-78
2020/12/08 10:54:13;;;;;;;34.92;29.35;;;4.40;99.90;;;;;;4961464;29;20098;-77
2020/12/08 10:56:39;;;;;;;33.65;28.58;;;4.40;99.90;;;;;;4947550;28;20047;-76
2020/12/08 10:59:06;;;;;;;38.45;30.23;;;4.40;99.90;;;;;;4948349;29;20047;-75
2020/12/08 11:01:37;;;;;;;33.90;28.60;;;4.50;99.90;;;;;;4947244;28;20094;-75
2020/12/08 11:04:04;;;;;;;33.50;27.30;;;4.70;99.90;;;;;;4951069;28;20086;-77
2020/12/08 11:06:31;;;;;;;34.65;27.67;;;4.60;99.90;;;;;;4950855;29;20136;-77
2020/12/08 11:08:59;;;;;;;36.03;29.02;;;4.70;99.90;;;;;;4952875;28;20927;-76
2020/12/08 11:11:30;;;;;;;32.85;27.55;;;4.80;99.90;;;;;;4946524;29;20055;-78
2020/12/08 11:13:57;;;;;;;34.50;28.98;;;4.70;99.90;;;;;;4933331;29;20578;-78
2020/12/08 11:16:25;;;;;;;34.83;28.33;;;4.60;99.90;;;;;;4899143;29;20055;-77
2020/12/08 11:18:53;;;;;;;33.05;27.55;;;4.80;99.90;;;;;;4947664;29;20087;-76
2020/12/08 11:21:24;;;;;;;32.25;27.20;;;5.00;99.90;;;;;;4951008;28;20516;-76
2020/12/08 11:23:51;;;;;;;33.03;27.90;;;4.90;99.90;;;;;;4949234;29;20778;-76
2020/12/08 11:26:18;;;;;;;33.13;27.92;;;4.90;99.90;;;;;;4944978;29;20468;-76
2020/12/08 11:28:44;;;;;;;37.42;29.33;;;5.00;99.90;;;;;;4946342;29;20150;-76
2020/12/08 11:31:11;;;;;;;31.77;28.52;;;5.00;99.90;;;;;;4957503;28;20653;-77
2020/12/08 11:33:42;;;;;;;33.35;29.05;;;5.10;99.90;;;;;;4952124;28;20600;-77
2020/12/08 11:36:09;;;;;;;36.60;30.65;;;4.80;99.90;;;;;;4967174;28;20347;-76
2020/12/08 11:38:36;;;;;;;32.72;26.60;;;4.70;99.90;;;;;;4968268;28;20491;-75
2020/12/08 11:41:03;;;;;;;30.08;26.80;;;4.60;99.90;;;;;;4967350;28;20126;-76
2020/12/08 11:43:30;;;;;;;29.85;26.73;;;4.60;99.90;;;;;;4952611;28;20569;-78
2020/12/08 11:45:59;;;;;;;29.65;26.35;;;4.50;99.90;;;;;;4927184;29;20074;-77
2020/12/08 11:48:26;;;;;;;33.92;28.77;;;4.50;99.90;;;;;;4960766;28;20038;-77
2020/12/08 11:50:53;;;;;;;31.38;27.88;;;4.50;99.90;;;;;;4963960;28;20051;-75
2020/12/08 11:53:21;;;;;;;29.05;25.92;;;4.50;99.90;;;;;;4950046;28;20137;-75
2020/12/08 11:55:48;;;;;;;31.67;25.45;;;4.50;99.90;;;;;;4950239;28;20055;-80
2020/12/08 11:58:16;;;;;;;31.88;25.08;;;4.50;99.90;;;;;;4948364;29;20052;-76
2020/12/08 12:00:42;;;;;;;32.63;26.25;;;4.50;99.90;;;;;;4951101;28;20532;-75
2020/12/08 12:03:08;;;;;;;26.85;23.92;;;4.50;99.90;;;;;;4948553;28;20146;-77
2020/12/08 12:05:38;;;;;;;29.98;25.08;;;4.60;99.90;;;;;;4954633;28;20125;-75
2020/12/08 12:08:06;;;;;;;26.02;21.85;;;4.50;99.90;;;;;;4967313;28;20054;-72
2020/12/08 12:10:33;;;;;;;29.75;24.15;;;4.40;99.90;;;;;;4966894;28;20256;-73
2020/12/08 12:12:59;;;;;;;29.08;24.90;;;4.40;99.90;;;;;;4949440;28;20061;-72
2020/12/08 12:15:26;;;;;;;28.75;23.38;;;4.40;99.90;;;;;;4962308;28;20085;-73
2020/12/08 12:17:52;;;;;;;28.48;22.48;;;4.40;99.90;;;;;;4957930;28;20039;-72
2020/12/08 12:20:18;;;;;;;28.90;23.00;;;4.40;99.90;;;;;;4957658;28;20077;-72
2020/12/08 12:22:45;;;;;;;33.08;25.50;;;4.50;99.90;;;;;;4962278;28;20105;-72
2020/12/08 12:25:11;;;;;;;28.70;23.23;;;4.50;99.90;;;;;;4961821;28;20058;-72
2020/12/08 12:27:37;;;;;;;29.00;21.10;;;4.50;99.90;;;;;;4967482;28;20053;-72
2020/12/08 12:30:04;;;;;;;21.20;16.65;;;4.40;99.90;;;;;;4965566;28;20051;-73
2020/12/08 12:32:31;;;;;;;27.88;22.90;;;4.30;99.90;;;;;;4966672;28;20051;-74
2020/12/08 12:34:57;;;;;;;30.27;22.48;;;4.30;99.90;;;;;;4965446;28;20114;-73
2020/12/08 12:37:24;;;;;;;31.70;23.08;;;4.30;99.90;;;;;;4931300;28;20078;-74
2020/12/08 12:39:50;;;;;;;27.77;23.00;;;4.40;99.90;;;;;;4945358;28;20066;-72